Time;durP1;ratioP1;P1;durP2;ratioP2;P2;SDS_P1;SDS_P2;PMS_P1;PMS_P2;Temp;Humidity;BMP_temperature;BMP_pressure;BME280_temperature;BME280_humidity;BME280_pressure;Samples;Min_cycle;Max_cycle;Signal;HPM_P1;HPM_P2
2022/11/21 00:00:29;;;;;;;33.80;16.98;;;;;;;4.40;100.00;100087.84;5033001;28;20061;-72
2022/11/21 00:03:00;;;;;;;34.55;16.80;;;;;;;4.41;100.00;100089.41;5033248;28;20057;-71
2022/11/21 00:05:28;;;;;;;36.83;17.90;;;;;;;4.43;100.00;100094.50;5031270;28;20056;-71
2022/11/21 00:07:55;;;;;;;35.50;18.42;;;;;;;4.44;100.00;100096.88;5033827;28;20056;-72
2022/11/21 00:10:22;;;;;;;35.42;16.88;;;;;;;4.44;100.00;100099.63;5037122;28;20049;-72
2022/11/21 00:12:56;;;;;;;39.28;19.10;;;;;;;4.42;100.00;100099.19;5026670;28;20044;-73
2022/11/21 00:15:25;;;;;;;36.88;17.65;;;;;;;4.46;100.00;100107.47;5029242;28;20748;-72
2022/11/21 00:17:52;;;;;;;34.53;17.23;;;;;;;4.47;100.00;100101.63;5030620;28;20061;-70
2022/11/21 00:20:20;;;;;;;36.30;17.00;;;;;;;4.47;100.00;100104.38;5029772;28;20048;-71
2022/11/21 00:22:47;;;;;;;33.83;16.42;;;;;;;4.45;100.00;100103.94;5029675;28;20048;-73
2022/11/21 00:25:14;;;;;;;33.83;17.02;;;;;;;4.47;100.00;100112.56;5021045;28;20053;-71
2022/11/21 00:27:40;;;;;;;31.70;16.55;;;;;;;4.44;100.00;100118.78;5029141;28;20049;-72
2022/11/21 00:30:12;;;;;;;31.77;15.35;;;;;;;4.39;100.00;100116.38;5029494;28;20052;-71
2022/11/21 00:32:39;;;;;;;33.80;16.75;;;;;;;4.42;100.00;100123.84;5034323;28;20055;-73
2022/11/21 00:35:06;;;;;;;36.88;16.40;;;;;;;4.40;100.00;100117.97;5032507;28;20777;-73
2022/11/21 00:37:33;;;;;;;32.72;17.75;;;;;;;4.39;100.00;100116.38;5031539;28;20452;-73
2022/11/21 00:40:00;;;;;;;38.15;18.15;;;;;;;4.39;100.00;100116.38;5030522;28;20049;-73
2022/11/21 00:42:26;;;;;;;34.95;17.90;;;;;;;4.37;100.00;100113.22;5029968;28;20041;-72
2022/11/21 00:44:53;;;;;;;33.83;16.38;;;;;;;4.38;100.00;100108.50;5030269;28;20045;-72
2022/11/21 00:47:19;;;;;;;34.58;18.13;;;;;;;4.38;100.00;100112.06;5031696;28;20675;-72
2022/11/21 00:49:46;;;;;;;36.58;18.05;;;;;;;4.37;100.00;100109.69;5029316;28;20045;-72
2022/11/21 00:52:12;;;;;;;34.50;16.77;;;;;;;4.38;100.00;100114.78;5034931;28;20056;-71
2022/11/21 00:54:39;;;;;;;35.63;18.13;;;;;;;4.37;100.00;100113.22;5032323;28;20066;-72
2022/11/21 00:57:05;;;;;;;38.53;18.70;;;;;;;4.37;100.00;100113.22;5032123;28;20053;-70
2022/11/21 00:59:32;;;;;;;35.05;17.02;;;;;;;4.29;100.00;100092.34;5042020;28;20059;-71
2022/11/21 01:01:58;;;;;;;35.40;16.65;;;;;;;4.35;100.00;100106.50;5034347;28;20057;-73
2022/11/21 01:04:25;;;;;;;37.47;17.88;;;;;;;4.38;100.00;100108.50;5033933;28;20045;-70
2022/11/21 01:06:52;;;;;;;35.20;17.52;;;;;;;4.38;100.00;100122.22;5043487;28;20052;-72
2022/11/21 01:09:19;;;;;;;37.25;18.45;;;;;;;4.38;100.00;100119.47;5034346;28;20433;-73
2022/11/21 01:11:45;;;;;;;29.58;14.80;;;;;;;4.24;100.00;100128.28;5037255;28;20057;-71
2022/11/21 01:14:12;;;;;;;35.22;16.65;;;;;;;4.16;100.00;100121.13;5039459;28;20053;-71
2022/11/21 01:16:38;;;;;;;35.90;17.77;;;;;;;4.18;100.00;100116.06;5034436;28;20056;-71
2022/11/21 01:19:05;;;;;;;36.28;17.40;;;;;;;4.25;100.00;100120.88;5035239;28;20273;-71
2022/11/21 01:21:32;;;;;;;34.55;18.20;;;;;;;4.28;100.00;100126.38;5033758;28;20119;-71
2022/11/21 01:23:59;;;;;;;34.08;17.20;;;;;;;4.29;100.00;100133.44;5037446;28;20053;-71
2022/11/21 01:26:27;;;;;;;31.98;15.90;;;;;;;4.31;100.00;100124.84;5033916;28;20135;-71
2022/11/21 01:28:54;;;;;;;32.33;15.25;;;;;;;4.31;100.00;100133.88;5034356;28;20754;-71
2022/11/21 01:31:23;;;;;;;36.13;16.80;;;;;;;4.32;100.00;100135.44;5033450;28;20067;-70
2022/11/21 01:33:50;;;;;;;33.83;16.20;;;;;;;4.31;100.00;100139.34;5032499;28;20056;-71
2022/11/21 01:36:23;;;;;;;35.05;16.73;;;;;;;4.31;100.00;100144.00;5036619;28;20056;-70
2022/11/21 01:38:52;;;;;;;31.48;15.95;;;;;;;4.31;100.00;100149.50;5032785;28;20924;-70
2022/11/21 01:41:21;;;;;;;33.78;15.95;;;;;;;4.31;100.00;100150.28;5039044;28;20053;-70
2022/11/21 01:43:49;;;;;;;36.05;16.73;;;;;;;4.31;100.00;100142.06;5034323;28;20097;-71
2022/11/21 01:46:18;;;;;;;33.05;16.65;;;;;;;4.32;100.00;100140.16;5034762;28;20053;-71
2022/11/21 01:48:57;;;;;;;34.58;16.23;;;;;;;4.31;100.00;100142.06;5035812;28;20056;-72
2022/11/21 01:51:37;;;;;;;35.88;16.98;;;;;;;4.31;100.00;100144.00;5033411;28;20140;-72
2022/11/21 01:54:19;;;;;;;33.15;16.60;;;;;;;4.25;100.00;100142.78;5030144;28;20056;-72
2022/11/21 01:56:54;;;;;;;34.17;16.55;;;;;;;4.30;100.00;100146.00;5030668;28;20060;-72
2022/11/21 01:59:28;;;;;;;33.30;17.00;;;;;;;4.31;100.00;100136.59;5032080;28;20103;-73
2022/11/21 02:01:58;;;;;;;35.33;17.02;;;;;;;4.28;100.00;100137.34;5031948;28;20052;-73
2022/11/21 02:04:29;;;;;;;34.88;16.52;;;;;;;4.27;100.00;100134.97;5035797;28;20052;-72
2022/11/21 02:06:57;;;;;;;35.03;17.15;;;;;;;4.24;100.00;100139.25;5042768;28;20053;-72
2022/11/21 02:09:24;;;;;;;31.90;16.33;;;;;;;4.25;100.00;100148.25;5032064;28;20057;-69
2022/11/21 02:11:57;;;;;;;35.78;17.92;;;;;;;4.20;100.00;100143.88;5033748;28;20791;-73
2022/11/21 02:14:24;;;;;;;32.97;16.40;;;;;;;4.25;100.00;100159.97;5037718;28;20049;-73
2022/11/21 02:16:55;;;;;;;34.00;15.38;;;;;;;4.26;100.00;100155.31;5032676;28;20793;-71
2022/11/21 02:19:32;;;;;;;34.55;16.92;;;;;;;4.23;100.00;100147.81;5029201;28;20064;-73
2022/11/21 02:22:11;;;;;;;36.30;17.10;;;;;;;4.23;100.00;100156.84;5032418;28;20063;-72
2022/11/21 02:24:59;;;;;;;36.00;16.75;;;;;;;4.22;100.00;100149.75;5032088;28;20044;-72
2022/11/21 02:27:26;;;;;;;36.30;17.30;;;;;;;4.22;100.00;100146.25;5037802;28;20798;-73
2022/11/21 02:29:53;;;;;;;35.80;17.33;;;;;;;4.18;100.00;100143.44;5031127;28;21056;-73
2022/11/21 02:32:22;;;;;;;35.67;17.30;;;;;;;4.16;100.00;100153.19;5032655;28;20052;-73
2022/11/21 02:34:48;;;;;;;32.95;15.75;;;;;;;4.18;100.00;100159.88;5030944;28;20845;-72
2022/11/21 02:37:16;;;;;;;37.42;18.58;;;;;;;4.14;100.00;100148.09;5031631;28;20801;-69
2022/11/21 02:39:46;;;;;;;37.72;18.50;;;;;;;4.17;100.00;100152.03;5032741;28;20049;-70
2022/11/21 02:42:22;;;;;;;35.45;16.92;;;;;;;4.18;100.00;100145.38;5038026;28;20053;-71
2022/11/21 02:45:04;;;;;;;32.63;15.57;;;;;;;4.19;100.00;100147.75;5045438;28;20047;-73
2022/11/21 02:47:32;;;;;;;35.22;17.45;;;;;;;4.18;100.00;100143.44;5060101;28;20045;-72
2022/11/21 02:50:06;;;;;;;33.90;16.75;;;;;;;4.13;100.00;100146.50;5032055;28;20131;-72
2022/11/21 02:52:32;;;;;;;38.53;18.60;;;;;;;4.16;100.00;100154.00;5032083;28;20045;-72
2022/11/21 02:54:59;;;;;;;36.83;17.38;;;;;;;4.10;100.00;100152.72;5035354;28;20053;-72
2022/11/21 02:57:25;;;;;;;44.15;19.33;;;;;;;4.06;100.00;100153.81;5028354;28;20056;-71
2022/11/21 02:59:52;;;;;;;37.25;18.92;;;;;;;4.09;100.00;100153.06;5051130;28;20061;-72
2022/11/21 03:02:18;;;;;;;38.15;18.38;;;;;;;4.12;100.00;100150.38;5031696;28;20056;-70
2022/11/21 03:04:44;;;;;;;37.88;17.75;;;;;;;4.11;100.00;100161.69;5049017;28;20148;-72
2022/11/21 03:07:11;;;;;;;38.05;18.33;;;;;;;4.12;100.00;100161.34;5052153;28;20085;-72
2022/11/21 03:09:38;;;;;;;40.70;19.10;;;;;;;4.12;100.00;100147.66;5046091;28;20053;-72
2022/11/21 03:12:06;;;;;;;41.60;19.73;;;;;;;4.14;100.00;100155.50;5048994;28;20053;-72
2022/11/21 03:14:33;;;;;;;40.50;19.15;;;;;;;4.13;100.00;100149.25;5048783;28;20056;-71
2022/11/21 03:17:00;;;;;;;39.60;18.00;;;;;;;4.14;100.00;100152.75;5048549;28;20061;-72
2022/11/21 03:19:27;;;;;;;40.33;18.40;;;;;;;4.10;100.00;100152.72;5048925;28;20053;-71
2022/11/21 03:21:54;;;;;;;34.97;16.88;;;;;;;4.12;100.00;100150.38;5049105;28;20052;-71
2022/11/21 03:24:21;;;;;;;36.20;17.80;;;;;;;4.12;100.00;100144.91;5046412;28;20041;-71
2022/11/21 03:26:47;;;;;;;35.10;17.02;;;;;;;4.13;100.00;100162.13;5054369;28;20057;-70
2022/11/21 03:29:14;;;;;;;38.95;17.77;;;;;;;4.12;100.00;100164.06;5048112;28;20178;-71
2022/11/21 03:31:40;;;;;;;36.10;16.65;;;;;;;4.10;100.00;100152.72;5048146;28;20421;-71
2022/11/21 03:34:07;;;;;;;35.85;18.00;;;;;;;4.13;100.00;100153.91;5048215;28;20048;-70
2022/11/21 03:36:34;;;;;;;37.20;17.92;;;;;;;4.15;100.00;100157.88;5046494;28;20045;-72
2022/11/21 03:39:00;;;;;;;35.75;17.65;;;;;;;4.15;100.00;100163.34;5048423;28;20049;-71
2022/11/21 03:41:29;;;;;;;37.40;18.25;;;;;;;4.12;100.00;100150.38;5045971;28;20048;-73
2022/11/21 03:44:04;;;;;;;38.97;17.40;;;;;;;4.12;100.00;100155.84;5048149;28;20053;-72
2022/11/21 03:46:33;;;;;;;40.90;19.10;;;;;;;4.11;100.00;100148.00;5047966;28;20501;-73
2022/11/21 03:48:59;;;;;;;38.90;17.58;;;;;;;4.11;100.00;100150.75;5047739;28;20052;-70
2022/11/21 03:51:26;;;;;;;41.08;19.02;;;;;;;4.09;100.00;100151.13;5079027;28;20045;-71
2022/11/21 03:53:53;;;;;;;34.60;17.35;;;;;;;4.10;100.00;100147.25;5047906;28;20064;-71
2022/11/21 03:56:20;;;;;;;36.25;16.63;;;;;;;4.10;100.00;100147.25;5044285;28;20053;-71
2022/11/21 03:58:46;;;;;;;38.38;17.52;;;;;;;4.11;100.00;100148.00;5046032;28;20041;-73
2022/11/21 04:01:13;;;;;;;38.28;17.77;;;;;;;4.08;100.00;100148.78;5055805;28;20060;-72
2022/11/21 04:03:44;;;;;;;38.33;17.13;;;;;;;4.07;100.00;100155.38;5047921;28;20056;-72
2022/11/21 04:06:12;;;;;;;39.97;18.65;;;;;;;4.09;100.00;100150.34;5048063;28;20055;-72
2022/11/21 04:08:39;;;;;;;38.75;17.55;;;;;;;4.09;100.00;100142.91;5047363;28;20053;-72
2022/11/21 04:11:07;;;;;;;44.00;19.75;;;;;;;4.09;100.00;100142.13;5050571;28;20040;-71
2022/11/21 04:13:33;;;;;;;40.63;19.15;;;;;;;4.06;100.00;100140.94;5048160;28;20040;-69
2022/11/21 04:16:01;;;;;;;40.70;17.95;;;;;;;4.08;100.00;100144.06;5047582;28;20056;-72
2022/11/21 04:18:27;;;;;;;42.30;19.92;;;;;;;4.05;100.00;100144.81;5048389;28;20056;-71
2022/11/21 04:20:58;;;;;;;38.35;18.10;;;;;;;4.05;100.00;100146.75;5047331;28;20049;-69
2022/11/21 04:23:25;;;;;;;38.30;17.88;;;;;;;4.01;100.00;100141.22;5048065;28;20049;-72
2022/11/21 04:25:52;;;;;;;40.60;17.95;;;;;;;4.03;100.00;100138.91;5047823;28;20041;-71
2022/11/21 04:28:19;;;;;;;39.92;17.98;;;;;;;4.06;100.00;100140.94;5046940;28;20569;-70
2022/11/21 04:30:45;;;;;;;40.63;17.45;;;;;;;4.06;100.00;100145.59;5048978;28;20056;-70
2022/11/21 04:33:14;;;;;;;44.38;19.55;;;;;;;4.04;100.00;100151.44;5050273;28;20075;-72
2022/11/21 04:35:41;;;;;;;41.30;19.05;;;;;;;4.04;100.00;100148.69;5051711;28;20052;-70
2022/11/21 04:38:08;;;;;;;43.33;20.65;;;;;;;4.06;100.00;100148.34;5051748;28;20053;-70
2022/11/21 04:40:35;;;;;;;41.47;18.52;;;;;;;4.06;100.00;100148.34;5050194;28;20410;-71
2022/11/21 04:43:02;;;;;;;43.53;19.65;;;;;;;4.08;100.00;100148.78;5051559;28;20496;-71
2022/11/21 04:45:29;;;;;;;39.70;19.58;;;;;;;4.05;100.00;100144.03;5056325;28;20045;-69
2022/11/21 04:47:56;;;;;;;44.55;19.58;;;;;;;4.08;100.00;100159.72;5049377;28;20060;-70
2022/11/21 04:50:23;;;;;;;41.80;17.65;;;;;;;4.05;100.00;100161.22;5050890;28;20048;-70
2022/11/21 04:52:54;;;;;;;44.45;20.35;;;;;;;4.06;100.00;100162.03;5051076;28;20505;-73
2022/11/21 04:55:23;;;;;;;44.35;21.67;;;;;;;4.07;100.00;100149.91;5051601;28;20044;-71
2022/11/21 04:57:50;;;;;;;45.15;20.63;;;;;;;4.03;100.00;100143.59;5051440;28;20064;-69
2022/11/21 05:00:17;;;;;;;51.53;21.48;;;;;;;4.05;100.00;100144.03;5056899;28;20063;-69
2022/11/21 05:02:49;;;;;;;53.55;23.15;;;;;;;4.04;100.00;100154.19;5051446;28;20064;-70
2022/11/21 05:05:16;;;;;;;48.05;21.73;;;;;;;4.02;100.00;100153.75;5050539;28;20515;-69
2022/11/21 05:07:43;;;;;;;52.40;21.73;;;;;;;4.03;100.00;100158.09;5054191;28;20059;-71
2022/11/21 05:10:09;;;;;;;53.33;22.67;;;;;;;4.06;100.00;100167.50;5052906;28;20057;-72
2022/11/21 05:13:21;;;;;;;53.10;22.08;;;;;;;4.08;100.00;100159.72;5050348;28;20390;-72
2022/11/21 05:15:22;;;;;;;55.75;23.67;;;;;;;4.03;100.00;100141.66;5051265;28;20531;-72
2022/11/21 05:17:50;;;;;;;48.97;20.73;;;;;;;4.04;100.00;100137.75;5049640;28;20055;-71
2022/11/21 05:20:17;;;;;;;54.38;22.58;;;;;;;4.00;100.00;100141.59;5050180;28;20052;-70
2022/11/21 05:22:48;;;;;;;56.17;21.42;;;;;;;3.99;100.00;100140.81;5050718;28;20063;-71
2022/11/21 05:25:15;;;;;;;50.95;23.40;;;;;;;3.97;100.00;100137.66;5049460;28;20103;-70
2022/11/21 05:27:42;;;;;;;58.90;22.73;;;;;;;3.98;100.00;100149.38;5050623;28;20137;-70
2022/11/21 05:30:09;;;;;;;57.20;25.23;;;;;;;3.96;100.00;100152.50;5047675;28;20052;-73
2022/11/21 05:32:36;;;;;;;54.67;21.95;;;;;;;3.97;100.00;100148.59;5049962;28;20045;-70
2022/11/21 05:35:03;;;;;;;59.72;23.13;;;;;;;3.99;100.00;100150.97;5049320;28;20067;-71
2022/11/21 05:37:29;;;;;;;51.67;21.73;;;;;;;3.97;100.00;100139.56;5049968;28;20474;-71
2022/11/21 05:39:56;;;;;;;51.72;21.25;;;;;;;4.00;100.00;100158.00;5049878;28;20048;-72
2022/11/21 05:43:44;;;;;;;51.42;20.67;;;;;;;3.95;100.00;100161.06;5050264;28;20059;-71
2022/11/21 05:45:09;;;;;;;50.45;20.52;;;;;;;3.86;100.00;100147.63;5049985;28;20483;-72
2022/11/21 05:47:36;;;;;;;50.38;20.73;;;;;;;3.90;100.00;100161.34;5048123;28;20067;-71
2022/11/21 05:50:03;;;;;;;54.20;21.35;;;;;;;3.87;100.00;100151.13;5048975;28;20061;-72
2022/11/21 05:52:29;;;;;;;53.28;23.23;;;;;;;3.87;100.00;100151.94;5050552;28;20057;-71
2022/11/21 05:54:55;;;;;;;53.25;21.77;;;;;;;3.94;100.00;100140.31;5048894;28;20045;-70
2022/11/21 05:57:22;;;;;;;56.83;22.95;;;;;;;3.96;100.00;100141.53;5050091;28;20152;-71
2022/11/21 05:59:48;;;;;;;51.47;22.38;;;;;;;3.95;100.00;100145.41;5052174;28;20055;-70
2022/11/21 06:05:00;;;;;;;52.05;22.65;;;;;;;3.90;100.00;100132.06;5052572;28;20533;-70
2022/11/21 06:07:26;;;;;;;58.10;22.27;;;;;;;3.95;100.00;100131.72;5049265;28;20057;-71
2022/11/21 06:09:53;;;;;;;51.50;21.70;;;;;;;3.96;100.00;100136.06;5048241;28;20064;-72
2022/11/21 06:12:19;;;;;;;59.03;23.58;;;;;;;3.96;100.00;100133.34;5049749;28;20528;-70
2022/11/21 06:14:51;;;;;;;57.10;23.33;;;;;;;4.00;100.00;100134.19;5049372;28;20055;-70
2022/11/21 06:17:17;;;;;;;58.60;22.98;;;;;;;4.03;100.00;100129.91;5051136;28;20440;-70
2022/11/21 06:19:44;;;;;;;61.88;24.35;;;;;;;4.04;100.00;100128.75;5052425;28;20052;-69
2022/11/21 06:22:10;;;;;;;67.28;24.98;;;;;;;4.00;100.00;100115.00;5049226;28;20049;-70
2022/11/21 06:24:37;;;;;;;56.97;25.13;;;;;;;4.04;100.00;100126.81;5047440;28;20632;-70
2022/11/21 06:27:03;;;;;;;63.60;24.50;;;;;;;4.06;100.00;100118.22;5049157;28;20079;-70
2022/11/21 06:29:29;;;;;;;59.40;25.08;;;;;;;4.10;100.00;100113.59;5049214;28;20064;-68
2022/11/21 06:31:56;;;;;;;59.65;25.13;;;;;;;4.11;100.00;100117.91;5049670;28;20055;-72
2022/11/21 06:34:25;;;;;;;59.92;24.52;;;;;;;4.10;100.00;100119.06;5050870;28;20068;-72
2022/11/21 06:36:52;;;;;;;69.40;26.40;;;;;;;4.12;100.00;100109.31;5034325;28;20049;-71
2022/11/21 06:39:18;;;;;;;64.00;25.05;;;;;;;4.10;100.00;100106.19;5050158;28;20067;-71
2022/11/21 06:41:49;;;;;;;61.78;24.90;;;;;;;4.06;100.00;100099.06;5052892;28;20044;-71
2022/11/21 06:44:17;;;;;;;57.20;22.67;;;;;;;4.06;100.00;100097.13;5050789;28;20055;-71
2022/11/21 06:46:44;;;;;;;61.47;23.10;;;;;;;4.03;100.00;100095.13;5047222;28;20060;-72
2022/11/21 06:49:16;;;;;;;68.82;26.85;;;;;;;4.06;100.00;100094.38;5056049;28;20048;-72
2022/11/21 06:51:43;;;;;;;61.38;23.75;;;;;;;4.02;100.00;100099.00;5047056;28;20163;-71
2022/11/21 06:54:09;;;;;;;68.40;25.77;;;;;;;4.00;100.00;100097.78;5048952;28;20053;-71
2022/11/21 06:56:42;;;;;;;62.35;27.27;;;;;;;3.99;100.00;100094.28;5048721;28;20060;-72
2022/11/21 06:59:08;;;;;;;68.20;28.42;;;;;;;3.98;100.00;100092.69;5051085;28;20045;-71
2022/11/21 07:01:35;;;;;;;63.20;25.13;;;;;;;3.95;100.00;100090.69;5050512;28;20413;-71
2022/11/21 07:04:01;;;;;;;68.18;25.05;;;;;;;3.95;100.00;100093.41;5048437;28;20056;-71
2022/11/21 07:06:28;;;;;;;60.45;24.67;;;;;;;3.91;100.00;100092.56;5047956;28;20040;-71
2022/11/21 07:08:54;;;;;;;64.05;25.00;;;;;;;3.89;100.00;100102.31;5046634;28;20424;-71
2022/11/21 07:11:41;;;;;;;67.93;24.60;;;;;;;3.88;100.00;100107.00;5040977;28;20753;-71
2022/11/21 07:14:08;;;;;;;73.70;27.48;;;;;;;3.89;100.00;100108.59;5047672;28;20056;-70
2022/11/21 07:16:35;;;;;;;67.18;25.45;;;;;;;3.91;100.00;100108.22;5048406;28;20402;-68
2022/11/21 07:19:02;;;;;;;74.38;27.40;;;;;;;3.96;100.00;100116.13;5048155;28;20592;-73
2022/11/21 07:21:28;;;;;;;77.07;26.70;;;;;;;4.01;100.00;100118.53;5047964;28;20044;-71
2022/11/21 07:23:55;;;;;;;59.58;25.58;;;;;;;4.05;100.00;100122.13;5048321;28;20057;-71
2022/11/21 07:26:21;;;;;;;63.75;26.90;;;;;;;4.08;100.00;100122.16;5047175;28;20060;-73
2022/11/21 07:28:47;;;;;;;69.63;26.42;;;;;;;4.09;100.00;100112.00;5045008;28;20049;-71
2022/11/21 07:31:14;;;;;;;73.07;28.30;;;;;;;4.12;100.00;100117.53;5047001;28;20057;-71
2022/11/21 07:33:45;;;;;;;66.55;25.52;;;;;;;4.15;100.00;100121.50;5048045;28;20060;-71
2022/11/21 07:36:12;;;;;;;75.20;24.95;;;;;;;4.15;100.00;100121.50;5046826;28;20041;-73
2022/11/21 07:38:40;;;;;;;71.32;25.88;;;;;;;4.18;100.00;100115.25;5047979;28;20053;-73
2022/11/21 07:41:07;;;;;;;68.53;26.83;;;;;;;4.19;100.00;100112.16;5046097;28;20053;-72
2022/11/21 07:43:34;;;;;;;70.03;25.02;;;;;;;4.21;100.00;100120.00;5040026;28;20060;-71
2022/11/21 07:46:00;;;;;;;66.15;26.38;;;;;;;4.23;100.00;100117.69;5051782;28;20049;-71
2022/11/21 07:48:27;;;;;;;63.97;26.42;;;;;;;4.25;100.00;100109.91;5048382;28;20064;-71
2022/11/21 07:50:53;;;;;;;73.88;27.63;;;;;;;4.26;100.00;100109.53;5046696;28;20415;-71
2022/11/21 07:53:20;;;;;;;73.22;25.40;;;;;;;4.31;100.00;100114.69;5048013;28;20053;-71
2022/11/21 07:55:46;;;;;;;72.50;28.00;;;;;;;4.33;100.00;100111.59;5047969;28;20449;-71
2022/11/21 07:58:15;;;;;;;65.65;25.35;;;;;;;4.34;100.00;100113.16;5046305;28;20406;-72
2022/11/21 08:00:42;;;;;;;70.10;28.10;;;;;;;4.37;100.00;100106.94;5050362;28;20045;-71
2022/11/21 08:03:10;;;;;;;71.78;25.95;;;;;;;4.38;100.00;100098.34;5048929;28;20106;-71
2022/11/21 08:05:42;;;;;;;81.43;27.85;;;;;;;4.39;100.00;100099.94;5059567;28;20087;-72
2022/11/21 08:08:12;;;;;;;78.65;27.90;;;;;;;4.40;100.00;100096.06;5049304;28;20052;-71
2022/11/21 08:10:44;;;;;;;69.35;27.95;;;;;;;4.43;100.00;100094.50;5052294;28;20053;-72
2022/11/21 08:13:11;;;;;;;72.05;27.05;;;;;;;4.45;100.00;100094.91;5051896;28;20498;-71
2022/11/21 08:15:39;;;;;;;70.93;26.02;;;;;;;4.48;100.00;100085.97;5051177;28;20140;-72
2022/11/21 08:18:09;;;;;;;78.13;27.02;;;;;;;4.52;100.00;100082.09;5051688;28;20095;-71
2022/11/21 08:20:36;;;;;;;68.88;25.10;;;;;;;4.55;100.00;100080.56;5050254;28;20060;-71
2022/11/21 08:23:02;;;;;;;71.03;24.58;;;;;;;4.61;100.00;100076.34;5054664;28;20052;-72
2022/11/21 08:25:29;;;;;;;65.43;24.80;;;;;;;4.65;100.00;100074.44;5051178;28;20052;-72
2022/11/21 08:27:57;;;;;;;80.88;27.02;;;;;;;4.70;100.00;100076.84;5050369;28;20480;-72
2022/11/21 08:30:24;;;;;;;72.28;27.23;;;;;;;4.74;100.00;100074.94;5049593;28;20059;-69
2022/11/21 08:32:50;;;;;;;71.03;27.08;;;;;;;4.79;100.00;100074.59;5051731;28;20052;-72
2022/11/21 08:35:17;;;;;;;75.80;25.73;;;;;;;4.84;100.00;100079.75;5050991;28;20053;-72
2022/11/21 08:37:44;;;;;;;78.13;27.65;;;;;;;4.88;100.00;100075.09;5052983;28;20515;-73
2022/11/21 08:40:10;;;;;;;74.65;26.58;;;;;;;4.91;100.00;100072.41;5048925;28;20072;-73
2022/11/21 08:42:37;;;;;;;70.70;27.33;;;;;;;4.96;100.00;100080.28;5049550;28;20044;-71
2022/11/21 08:45:04;;;;;;;70.78;26.55;;;;;;;5.00;100.00;100072.88;5055874;28;20064;-73
2022/11/21 08:47:34;;;;;;;72.15;26.85;;;;;;;5.03;100.00;100071.38;5046857;28;20053;-72
2022/11/21 08:50:00;;;;;;;66.32;24.50;;;;;;;5.07;100.00;100059.25;5052415;28;20053;-72
2022/11/21 08:52:34;;;;;;;60.75;24.17;;;;;;;5.13;100.00;100059.72;5042569;28;20099;-73
2022/11/21 08:55:00;;;;;;;75.20;27.20;;;;;;;5.17;100.00;100068.78;5048742;28;20059;-72
2022/11/21 08:57:27;;;;;;;66.80;23.98;;;;;;;5.22;100.00;100071.97;5045964;28;20053;-73
2022/11/21 08:59:53;;;;;;;66.65;23.15;;;;;;;5.24;100.00;100064.13;5048654;28;20053;-73
2022/11/21 09:02:20;;;;;;;68.20;24.95;;;;;;;5.28;100.00;100056.75;5036077;28;20481;-73
2022/11/21 09:04:46;;;;;;;69.93;27.42;;;;;;;5.33;100.00;100059.13;5034588;28;20386;-72
2022/11/21 09:07:13;;;;;;;65.93;25.30;;;;;;;5.34;100.00;100070.91;5056435;28;20064;-72
2022/11/21 09:09:39;;;;;;;73.68;27.42;;;;;;;5.36;100.00;100065.81;5051595;28;20501;-72
2022/11/21 09:12:06;;;;;;;65.32;23.65;;;;;;;5.35;100.00;100076.00;5053977;28;20074;-72
2022/11/21 09:20:02;;;;;;;74.95;27.77;;;;;;;5.43;100.00;100066.69;5044819;28;20059;-73
2022/11/21 09:22:29;;;;;;;73.13;26.02;;;;;;;5.47;100.00;100057.69;5049605;28;20090;-71
2022/11/21 09:24:55;;;;;;;74.35;25.58;;;;;;;5.48;100.00;100057.31;5048420;28;20061;-71
2022/11/21 09:27:22;;;;;;;80.75;27.83;;;;;;;5.54;100.00;100057.75;5050750;28;20512;-71
2022/11/21 09:29:48;;;;;;;81.30;28.25;;;;;;;5.57;100.00;100057.00;5050148;28;20056;-71
2022/11/21 09:32:19;;;;;;;69.97;25.58;;;;;;;5.59;100.00;100052.69;5049897;28;20453;-71
2022/11/21 09:34:46;;;;;;;71.10;27.48;;;;;;;5.65;100.00;100056.66;5065932;28;20580;-71
2022/11/21 09:37:13;;;;;;;70.45;25.33;;;;;;;5.67;100.00;100050.81;5057241;28;20601;-72
2022/11/21 09:39:39;;;;;;;64.20;24.20;;;;;;;5.68;100.00;100046.88;5047660;28;20064;-71
2022/11/21 09:42:27;;;;;;;59.03;23.00;;;;;;;5.68;100.00;100050.44;5050458;28;20175;-74
2022/11/21 09:45:04;;;;;;;64.78;24.90;;;;;;;5.70;100.00;100048.06;5047081;28;20055;-71
2022/11/21 09:47:30;;;;;;;59.85;23.00;;;;;;;5.70;100.00;100045.31;5049976;28;20052;-70
2022/11/21 09:50:06;;;;;;;68.95;23.77;;;;;;;5.68;100.00;100028.47;5053040;28;20048;-73
2022/11/21 09:53:10;;;;;;;71.07;26.17;;;;;;;5.69;100.00;100034.72;5047852;28;20052;-72
2022/11/21 09:55:51;;;;;;;72.30;28.08;;;;;;;5.73;100.00;100043.81;5050369;28;20041;-72
2022/11/21 09:58:26;;;;;;;67.47;24.00;;;;;;;5.75;100.00;100047.72;5050844;28;20056;-72
2022/11/21 10:00:53;;;;;;;;;;;;;;;5.80;100.00;100046.59;5054199;28;20420;-70
2022/11/21 10:03:38;;;;;;;67.70;25.08;;;;;;;5.82;100.00;100049.75;5052703;28;20027;-72
2022/11/21 10:06:17;;;;;;;67.30;24.65;;;;;;;5.82;100.00;100041.53;5052129;28;20082;-73
2022/11/21 10:09:02;;;;;;;71.00;25.02;;;;;;;5.84;100.00;100041.94;5068691;28;20052;-73
2022/11/21 10:12:35;;;;;;;53.05;20.60;;;;;;;5.85;100.00;100022.34;5067418;28;20053;-73
2022/11/21 10:14:52;;;;;;;76.35;27.85;;;;;;;5.89;100.00;100014.13;5043994;28;20061;-73
2022/11/21 10:18:03;;;;;;;78.32;28.33;;;;;;;5.88;100.00;100007.84;5056510;28;20041;-72
2022/11/21 10:20:54;;;;;;;70.65;26.15;;;;;;;5.88;100.00;100005.13;5043282;28;20056;-72
2022/11/21 10:23:39;;;;;;;79.38;28.08;;;;;;;5.88;100.00;99999.63;5049369;28;20041;-72
2022/11/21 10:26:13;;;;;;;90.65;29.55;;;;;;;5.93;100.00;100001.19;5054408;28;20048;-72
2022/11/21 10:28:48;;;;;;;66.43;25.00;;;;;;;5.92;100.00;99983.16;5069882;28;20048;-71
2022/11/21 10:31:17;;;;;;;73.20;28.10;;;;;;;5.98;100.00;99987.13;5058792;28;20052;-72
2022/11/21 10:33:44;;;;;;;79.30;26.35;;;;;;;6.02;100.00;99983.22;5044147;28;20041;-72
2022/11/21 10:36:10;;;;;;;80.43;27.98;;;;;;;6.10;100.00;99975.78;5047052;28;20124;-71
2022/11/21 10:38:40;;;;;;;79.05;28.92;;;;;;;6.21;100.00;99982.91;5052320;28;20449;-72
2022/11/21 10:41:18;;;;;;;81.10;28.85;;;;;;;6.27;100.00;99964.91;5050524;28;20048;-71
2022/11/21 10:46:53;;;;;;;87.50;29.67;;;;;;;6.31;100.00;99957.44;5047393;28;20433;-73
2022/11/21 10:49:20;;;;;;;72.97;27.38;;;;;;;6.35;100.00;99951.97;5058867;28;20057;-72
2022/11/21 10:52:06;;;;;;;81.22;28.67;;;;;;;6.40;100.00;99946.09;5066856;28;20044;-74
2022/11/21 10:55:04;;;;;;;87.38;30.73;;;;;;;6.44;100.00;99938.66;5064382;28;20044;-71
2022/11/21 10:57:35;;;;;;;88.80;29.77;;;;;;;6.48;100.00;99929.25;5040443;28;20041;-73
2022/11/21 11:00:11;;;;;;;93.18;30.50;;;;;;;6.53;100.00;99933.56;5061063;28;20044;-71
2022/11/21 11:02:59;;;;;;;88.47;30.30;;;;;;;6.57;100.00;99937.91;5040114;28;20060;-73
2022/11/21 11:05:27;;;;;;;87.07;32.70;;;;;;;6.59;100.00;99923.78;5036920;28;20520;-74
2022/11/21 11:08:00;;;;;;;84.18;29.70;;;;;;;6.72;100.00;99922.25;5050500;28;20110;-71
2022/11/21 11:10:27;;;;;;;85.13;29.98;;;;;;;6.76;100.00;99920.28;5047288;28;20230;-71
2022/11/21 11:16:03;;;;;;;84.47;28.65;;;;;;;7.01;100.00;99905.38;5050090;28;20102;-73
2022/11/21 11:18:33;;;;;;;95.68;30.67;;;;;;;7.15;100.00;99901.81;5055856;28;20056;-71
2022/11/21 11:21:22;;;;;;;91.03;30.67;;;;;;;7.38;100.00;99888.44;5048921;28;20500;-73
2022/11/21 11:23:50;;;;;;;92.53;36.60;;;;;;;7.51;100.00;99890.41;5047909;28;20397;-71
2022/11/21 11:26:29;;;;;;;95.20;29.40;;;;;;;7.64;100.00;99886.06;5035573;28;20147;-73
2022/11/21 11:29:12;;;;;;;72.25;28.45;;;;;;;7.67;100.00;99884.47;5047254;28;20064;-73
2022/11/21 11:31:51;;;;;;;71.50;27.58;;;;;;;7.64;100.00;99877.00;5041197;28;20133;-71
2022/11/21 11:34:18;;;;;;;83.40;30.95;;;;;;;7.67;100.00;99870.69;5049093;28;20159;-72